createdAt,value
2019-01-20T00:01:37.745Z,-6.66
2019-01-20T00:04:06.724Z,-6.59
2019-01-20T00:06:34.520Z,-6.60
2019-01-20T00:09:02.820Z,-6.63
2019-01-20T00:11:30.946Z,-6.79
2019-01-20T00:13:59.372Z,-6.68
2019-01-20T00:16:27.493Z,-6.70
2019-01-20T00:18:57.706Z,-6.98
2019-01-20T00:21:26.077Z,-6.72
2019-01-20T00:23:53.985Z,-6.72
2019-01-20T00:26:23.393Z,-6.71
2019-01-20T00:28:51.805Z,-6.75
2019-01-20T00:31:19.600Z,-6.74
2019-01-20T00:33:48.172Z,-6.78
2019-01-20T00:36:16.149Z,-6.81
2019-01-20T00:38:44.482Z,-6.82
2019-01-20T00:41:13.171Z,-7.22
2019-01-20T00:43:41.976Z,-7.13
2019-01-20T00:46:11.894Z,-6.87
2019-01-20T00:48:40.612Z,-6.87
2019-01-20T00:51:09.767Z,-7.01
2019-01-20T00:53:38.045Z,-7.12
2019-01-20T00:56:07.827Z,-6.89
2019-01-20T00:58:35.726Z,-7.04
2019-01-20T01:01:04.283Z,-6.90
2019-01-20T01:03:32.973Z,-6.94
2019-01-20T01:06:01.089Z,-7.09
2019-01-20T01:08:29.039Z,-6.94
2019-01-20T01:10:57.282Z,-6.94
2019-01-20T01:13:25.051Z,-6.93
2019-01-20T01:15:53.294Z,-6.96
2019-01-20T01:18:21.822Z,-6.98
2019-01-20T01:20:50.688Z,-6.99
2019-01-20T01:23:18.954Z,-7.00
2019-01-20T01:25:47.123Z,-7.04
2019-01-20T01:28:15.421Z,-7.09
2019-01-20T01:30:43.776Z,-7.06
2019-01-20T01:33:12.075Z,-7.08
2019-01-20T01:35:40.389Z,-7.00
2019-01-20T01:38:08.996Z,-6.96
2019-01-20T01:40:37.040Z,-6.88
2019-01-20T01:43:05.081Z,-6.95
2019-01-20T01:45:33.084Z,-6.93
2019-01-20T01:48:02.076Z,-6.76
2019-01-20T01:50:30.321Z,-6.94
2019-01-20T01:52:59.174Z,-6.82
2019-01-20T01:55:27.548Z,-6.84
2019-01-20T01:57:55.649Z,-6.83
2019-01-20T02:00:23.967Z,-7.22
2019-01-20T02:02:52.139Z,-6.97
2019-01-20T02:05:20.334Z,-6.83
2019-01-20T02:07:48.356Z,-6.84
2019-01-20T02:10:19.167Z,-6.83
2019-01-20T02:12:47.248Z,-6.79
2019-01-20T02:15:16.376Z,-6.77
2019-01-20T02:17:45.359Z,-6.74
2019-01-20T02:20:15.391Z,-6.70
2019-01-20T02:22:43.527Z,-6.68
2019-01-20T02:25:11.767Z,-6.69
2019-01-20T02:27:39.845Z,-6.71
2019-01-20T02:30:12.204Z,-6.72
2019-01-20T02:32:40.563Z,-6.72
2019-01-20T02:35:08.782Z,-6.69
2019-01-20T02:37:37.677Z,-6.68
2019-01-20T02:40:06.044Z,-6.94
2019-01-20T02:42:34.417Z,-6.67
2019-01-20T02:45:03.361Z,-6.67
2019-01-20T02:47:31.395Z,-6.69
2019-01-20T02:49:59.296Z,-6.73
2019-01-20T02:52:27.615Z,-6.75
2019-01-20T02:54:55.672Z,-6.75
2019-01-20T02:57:23.711Z,-6.76
2019-01-20T02:59:52.165Z,-7.15
2019-01-20T03:02:20.185Z,-6.73
2019-01-20T03:04:48.452Z,-6.74
2019-01-20T03:07:16.952Z,-6.76
2019-01-20T03:09:45.127Z,-6.78
2019-01-20T03:12:13.277Z,-6.80
2019-01-20T03:14:41.755Z,-6.80
2019-01-20T03:17:09.809Z,-6.96
2019-01-20T03:19:38.169Z,-6.80
2019-01-20T03:22:06.893Z,-6.79
2019-01-20T03:24:35.255Z,-6.78
2019-01-20T03:27:03.319Z,-6.80
2019-01-20T03:29:31.728Z,-6.84
2019-01-20T03:31:59.692Z,-6.88
2019-01-20T03:34:27.735Z,-6.89
2019-01-20T03:36:55.750Z,-6.91
2019-01-20T03:39:23.828Z,-6.94
2019-01-20T03:41:51.769Z,-6.98
2019-01-20T03:44:20.163Z,-7.03
2019-01-20T03:46:48.532Z,-7.07
2019-01-20T03:49:16.870Z,-7.12
2019-01-20T03:51:45.593Z,-7.15
2019-01-20T03:54:15.104Z,-7.29
2019-01-20T03:56:43.736Z,-7.62
2019-01-20T03:59:13.116Z,-7.18
2019-01-20T04:01:42.473Z,-7.15
2019-01-20T04:04:12.826Z,-7.09
2019-01-20T04:06:41.179Z,-7.08
2019-01-20T04:09:09.136Z,-7.06
2019-01-20T04:11:37.314Z,-7.60
2019-01-20T04:14:05.842Z,-8.58
2019-01-20T04:16:34.460Z,-7.08
2019-01-20T04:19:03.109Z,-7.13
2019-01-20T04:21:31.039Z,-7.20
2019-01-20T04:23:58.990Z,-7.26
2019-01-20T04:26:26.907Z,-7.32
2019-01-20T04:28:55.148Z,-7.34
2019-01-20T04:31:22.956Z,-7.32
2019-01-20T04:33:50.788Z,-7.31
2019-01-20T04:36:18.864Z,-7.30
2019-01-20T04:38:46.637Z,-7.34
2019-01-20T04:41:14.420Z,-7.38
2019-01-20T04:43:42.809Z,-7.41
2019-01-20T04:46:11.660Z,-7.41
2019-01-20T04:48:39.551Z,-7.38
2019-01-20T04:51:07.895Z,-7.36
2019-01-20T04:53:36.211Z,-7.35
2019-01-20T04:56:04.732Z,-7.34
2019-01-20T04:58:32.528Z,-7.39
2019-01-20T05:01:00.302Z,-7.44
2019-01-20T05:03:28.235Z,-7.49
2019-01-20T05:05:56.976Z,-7.54
2019-01-20T05:08:25.190Z,-7.56
2019-01-20T05:10:53.361Z,-9.91
2019-01-20T05:13:21.661Z,-7.54
2019-01-20T05:15:49.805Z,-7.80
2019-01-20T05:18:17.780Z,-7.51
2019-01-20T05:20:45.745Z,-7.52
2019-01-20T05:23:14.021Z,-8.48
2019-01-20T05:25:41.730Z,-8.17
2019-01-20T05:28:09.925Z,-7.68
2019-01-20T05:30:38.550Z,-7.73
2019-01-20T05:33:07.056Z,-7.78
2019-01-20T05:35:34.817Z,-7.81
2019-01-20T05:38:03.156Z,-7.83
2019-01-20T05:40:31.109Z,-7.87
2019-01-20T05:42:59.245Z,-7.89
2019-01-20T05:45:27.722Z,-7.91
2019-01-20T05:47:56.048Z,-8.07
2019-01-20T05:50:23.966Z,-7.94
2019-01-20T05:52:52.453Z,-7.93
2019-01-20T05:55:20.751Z,-7.88
2019-01-20T05:57:48.586Z,-7.86
2019-01-20T06:00:22.608Z,-7.90
2019-01-20T06:02:50.863Z,-7.85
2019-01-20T06:05:18.977Z,-7.84
2019-01-20T06:07:47.503Z,-7.87
2019-01-20T06:10:22.544Z,-7.84
2019-01-20T06:12:54.242Z,-8.09
2019-01-20T06:15:20.000Z,-7.82
2019-01-20T06:17:48.477Z,-8.11
2019-01-20T06:20:16.663Z,-7.85
2019-01-20T06:22:45.103Z,-7.88
2019-01-20T06:25:14.120Z,-8.33
2019-01-20T06:27:43.607Z,-7.97
2019-01-20T06:30:17.401Z,-8.25
2019-01-20T06:32:45.985Z,-8.16
2019-01-20T06:35:15.632Z,-8.01
2019-01-20T06:37:47.512Z,-8.04
2019-01-20T06:40:15.693Z,-8.04
2019-01-20T06:42:46.146Z,-8.03
2019-01-20T06:45:15.276Z,-8.03
2019-01-20T06:47:47.696Z,-8.33
2019-01-20T06:50:16.759Z,-8.04
2019-01-20T06:52:46.548Z,-9.04
2019-01-20T06:55:14.615Z,-8.00
2019-01-20T06:57:45.173Z,-7.96
2019-01-20T07:00:15.440Z,-7.91
2019-01-20T07:02:43.454Z,-7.84
2019-01-20T07:05:12.202Z,-7.84
2019-01-20T07:07:40.743Z,-8.03
2019-01-20T07:10:09.036Z,-8.30
2019-01-20T07:12:37.324Z,-7.93
2019-01-20T07:15:08.082Z,-8.79
2019-01-20T07:17:35.838Z,-8.00
2019-01-20T07:20:06.084Z,-8.02
2019-01-20T07:22:34.367Z,-8.07
2019-01-20T07:25:03.008Z,-8.19
2019-01-20T07:27:32.130Z,-8.39
2019-01-20T07:30:00.775Z,-8.07
2019-01-20T07:32:29.028Z,-8.03
2019-01-20T07:34:57.154Z,-7.92
2019-01-20T07:37:26.141Z,-7.87
2019-01-20T07:39:54.777Z,-7.81
2019-01-20T07:42:24.042Z,-7.78
2019-01-20T07:44:51.912Z,-7.72
2019-01-20T07:47:19.889Z,-7.70
2019-01-20T07:49:48.830Z,-7.68
2019-01-20T07:52:18.442Z,-7.65
2019-01-20T07:54:47.025Z,-7.64
2019-01-20T07:57:14.828Z,-7.63
2019-01-20T07:59:45.648Z,-7.91
2019-01-20T08:02:14.348Z,-7.59
2019-01-20T08:04:45.378Z,-7.57
2019-01-20T08:07:13.526Z,-7.54
2019-01-20T08:09:41.407Z,-7.81
2019-01-20T08:12:10.168Z,-7.52
2019-01-20T08:14:38.153Z,-7.48
2019-01-20T08:17:11.298Z,-7.81
2019-01-20T08:19:38.314Z,-7.49
2019-01-20T08:22:10.931Z,-7.29
2019-01-20T08:24:41.402Z,-7.18
2019-01-20T08:27:13.033Z,-7.11
2019-01-20T08:29:44.102Z,-7.38
2019-01-20T08:32:15.103Z,-6.88
2019-01-20T08:34:44.270Z,-6.82
2019-01-20T08:37:14.797Z,-8.13
2019-01-20T08:39:43.060Z,-6.59
2019-01-20T08:42:13.648Z,-6.48
2019-01-20T08:44:44.261Z,-6.50
2019-01-20T08:48:18.536Z,-6.70
2019-01-20T08:50:51.825Z,-6.15
2019-01-20T08:53:21.996Z,-6.06
2019-01-20T08:55:54.990Z,-7.67
2019-01-20T08:58:23.516Z,-5.88
2019-01-20T09:00:57.401Z,-5.81
2019-01-20T09:03:30.287Z,-6.27
2019-01-20T09:06:01.428Z,-5.74
2019-01-20T09:08:38.026Z,-5.77
2019-01-20T09:11:07.509Z,-5.81
2019-01-20T09:13:40.233Z,-5.87
2019-01-20T09:16:08.549Z,-5.92
2019-01-20T09:18:37.335Z,-5.97
2019-01-20T09:21:05.767Z,-5.96
2019-01-20T09:23:33.598Z,-5.87
2019-01-20T09:26:05.183Z,-5.70
2019-01-20T09:28:36.102Z,-5.52
2019-01-20T09:31:09.200Z,-5.33
2019-01-20T09:33:38.470Z,-5.11
2019-01-20T09:36:13.690Z,-4.94
2019-01-20T09:38:42.086Z,-4.80
2019-01-20T09:41:11.241Z,-4.69
2019-01-20T09:43:47.169Z,-4.66
2019-01-20T09:46:09.736Z,-5.46
2019-01-20T09:48:37.877Z,-4.89
2019-01-20T09:51:06.368Z,-6.10
2019-01-20T09:53:34.502Z,-4.41
2019-01-20T09:56:04.168Z,-4.35
2019-01-20T09:58:32.719Z,-4.29
2019-01-20T10:01:05.797Z,-4.26
2019-01-20T10:03:35.330Z,-4.20
2019-01-20T10:06:06.866Z,-4.90
2019-01-20T10:08:39.945Z,-4.07
2019-01-20T10:11:08.874Z,-4.01
2019-01-20T10:13:37.689Z,-3.94
2019-01-20T10:16:06.426Z,-3.85
2019-01-20T10:18:35.323Z,-3.86
2019-01-20T10:21:05.662Z,-3.64
2019-01-20T10:23:39.155Z,-3.53
2019-01-20T10:26:11.410Z,-3.49
2019-01-20T10:28:46.892Z,-3.49
2019-01-20T10:31:15.589Z,-3.50
2019-01-20T10:33:43.600Z,-3.76
2019-01-20T10:36:13.150Z,-3.32
2019-01-20T10:38:42.235Z,-3.24
2019-01-20T10:41:12.387Z,-3.14
2019-01-20T10:43:41.787Z,-3.06
2019-01-20T10:46:16.967Z,-3.00
2019-01-20T10:48:45.432Z,-2.95
2019-01-20T10:51:13.828Z,-2.92
2019-01-20T10:56:20.243Z,-2.79
2019-01-20T10:58:48.209Z,-2.68
2019-01-20T11:01:16.620Z,-2.56
2019-01-20T11:03:46.462Z,-2.45
2019-01-20T11:06:14.567Z,-2.41
2019-01-20T11:08:43.929Z,-2.38
2019-01-20T11:11:16.179Z,-2.38
2019-01-20T11:13:46.009Z,-2.42
2019-01-20T11:16:14.349Z,-2.45
2019-01-20T11:18:42.375Z,-2.41
2019-01-20T11:21:10.670Z,-2.38
2019-01-20T11:23:40.460Z,-2.30
2019-01-20T11:26:08.538Z,-2.27
2019-01-20T11:28:38.219Z,-2.24
2019-01-20T11:31:07.280Z,-2.17
2019-01-20T11:33:35.311Z,-2.13
2019-01-20T11:36:05.444Z,-2.23
2019-01-20T11:38:34.088Z,-2.09
2019-01-20T11:41:03.153Z,-2.12
2019-01-20T11:43:31.248Z,-2.41
2019-01-20T11:46:00.349Z,-2.63
2019-01-20T11:48:34.345Z,-2.15
2019-01-20T11:51:04.509Z,-2.30
2019-01-20T11:53:33.952Z,-2.39
2019-01-20T11:56:04.701Z,-2.10
2019-01-20T11:58:34.372Z,-2.05
2019-01-20T12:01:02.751Z,-1.99
2019-01-20T12:03:31.578Z,-1.90
2019-01-20T12:05:59.493Z,-1.79
2019-01-20T12:08:30.753Z,-1.67
2019-01-20T12:10:55.656Z,-1.66
2019-01-20T12:13:27.677Z,-1.64
2019-01-20T12:15:55.809Z,-1.94
2019-01-20T12:18:23.915Z,-1.61
2019-01-20T12:20:53.505Z,-2.18
2019-01-20T12:23:21.583Z,-1.67
2019-01-20T12:25:49.948Z,-1.83
2019-01-20T12:28:18.483Z,-1.70
2019-01-20T12:30:48.159Z,-1.71
2019-01-20T12:33:18.473Z,-1.72
2019-01-20T12:35:47.023Z,-1.80
2019-01-20T12:38:14.980Z,-1.60
2019-01-20T12:40:45.937Z,-1.57
2019-01-20T12:43:13.946Z,-2.63
2019-01-20T12:45:42.913Z,-1.53
2019-01-20T12:48:11.216Z,-1.50
2019-01-20T12:50:39.694Z,-1.59
2019-01-20T12:53:07.529Z,-1.43
2019-01-20T12:55:38.510Z,-1.44
2019-01-20T12:58:06.942Z,-1.46
2019-01-20T13:00:35.755Z,-1.72
2019-01-20T13:03:04.624Z,-1.43
2019-01-20T13:05:32.773Z,-1.43
2019-01-20T13:08:02.673Z,-1.39
2019-01-20T13:10:31.663Z,-1.47
2019-01-20T13:13:01.105Z,-1.73
2019-01-20T13:15:29.909Z,-1.35
2019-01-20T13:17:59.148Z,-1.33
2019-01-20T13:20:28.052Z,-1.32
2019-01-20T13:22:57.646Z,-1.45
2019-01-20T13:25:28.329Z,-1.34
2019-01-20T13:27:57.063Z,-1.36
2019-01-20T13:30:27.114Z,-1.39
2019-01-20T13:32:55.671Z,-1.40
2019-01-20T13:35:24.647Z,-1.90
2019-01-20T13:37:56.294Z,-1.46
2019-01-20T13:40:28.775Z,-1.47
2019-01-20T13:42:56.672Z,-1.49
2019-01-20T13:45:24.782Z,-1.52
2019-01-20T13:47:56.634Z,-1.53
2019-01-20T13:50:24.853Z,-1.53
2019-01-20T13:52:55.470Z,-1.52
2019-01-20T13:55:23.958Z,-1.52
2019-01-20T13:57:52.801Z,-1.56
2019-01-20T14:00:22.245Z,-1.59
2019-01-20T14:02:51.054Z,-1.59
2019-01-20T14:05:22.787Z,-2.09
2019-01-20T14:07:52.399Z,-1.62
2019-01-20T14:10:21.433Z,-1.62
2019-01-20T14:12:50.032Z,-1.62
2019-01-20T14:15:19.722Z,-1.63
2019-01-20T14:17:47.728Z,-1.63
2019-01-20T14:20:20.173Z,-1.66
2019-01-20T14:22:48.460Z,-1.66
2019-01-20T14:25:20.308Z,-1.92
2019-01-20T14:27:48.705Z,-1.69
2019-01-20T14:30:19.076Z,-1.72
2019-01-20T14:32:47.527Z,-1.72
2019-01-20T14:35:16.143Z,-1.74
2019-01-20T14:37:44.029Z,-1.76
2019-01-20T14:40:13.300Z,-1.76
2019-01-20T14:42:41.461Z,-1.77
2019-01-20T14:45:09.964Z,-1.77
2019-01-20T14:47:39.831Z,-1.79
2019-01-20T14:50:09.360Z,-1.80
2019-01-20T14:52:37.294Z,-1.94
2019-01-20T14:55:07.220Z,-1.84
2019-01-20T14:57:36.155Z,-1.86
2019-01-20T15:00:06.807Z,-1.88
2019-01-20T15:02:34.670Z,-1.88
2019-01-20T15:05:03.800Z,-1.91
2019-01-20T15:07:32.496Z,-1.93
2019-01-20T15:10:00.524Z,-1.95
2019-01-20T15:12:28.781Z,-1.96
2019-01-20T15:17:34.531Z,-2.02
2019-01-20T15:20:03.335Z,-2.05
2019-01-20T15:22:31.504Z,-2.08
2019-01-20T15:24:59.655Z,-2.22
2019-01-20T15:27:27.470Z,-2.40
2019-01-20T15:29:55.218Z,-2.19
2019-01-20T15:32:23.528Z,-2.48
2019-01-20T15:34:51.266Z,-2.28
2019-01-20T15:37:20.628Z,-2.67
2019-01-20T15:39:49.246Z,-2.37
2019-01-20T15:42:17.419Z,-2.66
2019-01-20T15:44:45.980Z,-2.46
2019-01-20T15:47:14.475Z,-2.50
2019-01-20T15:49:42.677Z,-2.80
2019-01-20T15:52:10.768Z,-2.60
2019-01-20T15:54:39.032Z,-2.64
2019-01-20T15:57:07.204Z,-2.66
2019-01-20T15:59:35.282Z,-2.70
2019-01-20T16:02:05.351Z,-2.74
2019-01-20T16:04:33.359Z,-2.79
2019-01-20T16:07:01.736Z,-2.84
2019-01-20T16:09:31.237Z,-2.87
2019-01-20T16:11:59.034Z,-2.90
2019-01-20T16:14:27.081Z,-2.94
2019-01-20T16:16:55.467Z,-2.98
2019-01-20T16:19:23.949Z,-3.01
2019-01-20T16:21:51.688Z,-3.02
2019-01-20T16:24:19.994Z,-3.05
2019-01-20T16:26:48.973Z,-3.23
2019-01-20T16:29:21.212Z,-3.13
2019-01-20T16:31:49.824Z,-3.18
2019-01-20T16:34:19.389Z,-3.22
2019-01-20T16:36:48.013Z,-3.25
2019-01-20T16:39:17.193Z,-3.28
2019-01-20T16:41:45.189Z,-3.30
2019-01-20T16:44:13.601Z,-3.33
2019-01-20T16:46:42.692Z,-3.35
2019-01-20T16:49:12.073Z,-3.37
2019-01-20T16:51:40.066Z,-3.80
2019-01-20T16:54:09.060Z,-3.45
2019-01-20T16:56:39.214Z,-3.46
2019-01-20T16:59:09.305Z,-3.50
2019-01-20T17:01:37.368Z,-3.94
2019-01-20T17:04:07.583Z,-3.59
2019-01-20T17:06:36.167Z,-3.62
2019-01-20T17:09:10.067Z,-3.64
2019-01-20T17:11:38.660Z,-3.80
2019-01-20T17:14:06.528Z,-3.71
2019-01-20T17:16:34.893Z,-3.72
2019-01-20T17:19:03.296Z,-4.02
2019-01-20T17:21:31.352Z,-3.77
2019-01-20T17:24:04.354Z,-3.79
2019-01-20T17:26:32.793Z,-3.82
2019-01-20T17:29:02.277Z,-3.88
2019-01-20T17:31:30.512Z,-3.93
2019-01-20T17:33:59.712Z,-3.98
2019-01-20T17:36:28.604Z,-4.02
2019-01-20T17:38:57.689Z,-4.06
2019-01-20T17:41:27.286Z,-4.88
2019-01-20T17:43:56.766Z,-5.60
2019-01-20T17:46:24.806Z,-4.22
2019-01-20T17:48:53.448Z,-4.26
2019-01-20T17:51:21.762Z,-4.29
2019-01-20T17:53:49.765Z,-4.32
2019-01-20T17:56:17.854Z,-4.33
2019-01-20T17:58:46.420Z,-4.33
2019-01-20T18:01:14.619Z,-4.33
2019-01-20T18:03:42.473Z,-4.47
2019-01-20T18:06:11.295Z,-4.36
2019-01-20T18:08:41.639Z,-4.38
2019-01-20T18:11:09.892Z,-4.41
2019-01-20T18:13:39.909Z,-4.57
2019-01-20T18:16:07.975Z,-4.45
2019-01-20T18:18:36.925Z,-4.47
2019-01-20T18:21:06.546Z,-4.50
2019-01-20T18:23:35.526Z,-4.53
2019-01-20T18:26:05.313Z,-4.54
2019-01-20T18:28:33.460Z,-4.56
2019-01-20T18:31:02.532Z,-4.59
2019-01-20T18:33:30.893Z,-4.76
2019-01-20T18:36:04.965Z,-4.69
2019-01-20T18:38:32.992Z,-5.01
2019-01-20T18:41:00.819Z,-4.76
2019-01-20T18:43:29.085Z,-4.78
2019-01-20T18:46:01.617Z,-4.79
2019-01-20T18:48:25.901Z,-4.82
2019-01-20T18:50:54.147Z,-4.86
2019-01-20T18:53:22.344Z,-4.88
2019-01-20T18:55:51.463Z,-4.89
2019-01-20T18:58:20.446Z,-4.90
2019-01-20T19:00:51.097Z,-4.93
2019-01-20T19:03:19.992Z,-4.93
2019-01-20T19:05:48.550Z,-4.97
2019-01-20T19:08:16.585Z,-5.02
2019-01-20T19:10:44.895Z,-5.08
2019-01-20T19:13:13.167Z,-5.15
2019-01-20T19:15:41.328Z,-5.19
2019-01-20T19:18:09.842Z,-5.20
2019-01-20T19:20:40.107Z,-5.21
2019-01-20T19:23:09.524Z,-5.21
2019-01-20T19:25:38.778Z,-5.22
2019-01-20T19:28:09.068Z,-5.26
2019-01-20T19:30:36.901Z,-5.29
2019-01-20T19:33:06.190Z,-5.43
2019-01-20T19:35:34.403Z,-5.35
2019-01-20T19:38:04.482Z,-5.35
2019-01-20T19:40:33.943Z,-5.36
2019-01-20T19:43:02.103Z,-5.38
2019-01-20T19:45:29.911Z,-5.38
2019-01-20T19:47:59.962Z,-5.38
2019-01-20T19:50:28.225Z,-5.35
2019-01-20T19:52:56.273Z,-5.32
2019-01-20T19:55:36.921Z,-5.84
2019-01-20T19:58:05.269Z,-5.22
2019-01-20T20:00:33.682Z,-5.16
2019-01-20T20:03:01.908Z,-5.09
2019-01-20T20:05:30.643Z,-5.04
2019-01-20T20:07:59.028Z,-5.00
2019-01-20T20:10:27.773Z,-4.97
2019-01-20T20:12:56.686Z,-4.92
2019-01-20T20:15:27.351Z,-4.89
2019-01-20T20:17:56.620Z,-5.02
2019-01-20T20:20:25.483Z,-4.87
2019-01-20T20:22:53.944Z,-4.86
2019-01-20T20:25:22.531Z,-4.84
2019-01-20T20:27:50.848Z,-4.83
2019-01-20T20:30:24.528Z,-4.83
2019-01-20T20:32:54.341Z,-4.97
2019-01-20T20:35:22.563Z,-4.85
2019-01-20T20:37:50.784Z,-4.81
2019-01-20T20:40:19.835Z,-4.80
2019-01-20T20:42:49.626Z,-4.79
2019-01-20T20:45:19.763Z,-5.45
2019-01-20T20:47:50.422Z,-4.80
2019-01-20T20:50:18.974Z,-4.82
2019-01-20T20:52:48.617Z,-4.84
2019-01-20T20:55:16.584Z,-4.88
2019-01-20T20:57:44.980Z,-4.93
2019-01-20T21:00:15.529Z,-6.26
2019-01-20T21:02:43.850Z,-5.01
2019-01-20T21:05:12.554Z,-5.05
2019-01-20T21:07:40.951Z,-5.09
2019-01-20T21:10:12.167Z,-6.45
2019-01-20T21:12:39.924Z,-5.16
2019-01-20T21:15:09.676Z,-5.17
2019-01-20T21:17:37.909Z,-5.18
2019-01-20T21:20:09.158Z,-5.19
2019-01-20T21:22:37.098Z,-5.17
2019-01-20T21:25:06.940Z,-5.15
2019-01-20T21:27:36.235Z,-5.17
2019-01-20T21:30:06.035Z,-5.19
2019-01-20T21:32:34.209Z,-5.22
2019-01-20T21:35:03.370Z,-5.39
2019-01-20T21:37:31.209Z,-5.30
2019-01-20T21:39:59.213Z,-5.36
2019-01-20T21:42:27.053Z,-5.40
2019-01-20T21:44:55.085Z,-5.67
2019-01-20T21:47:22.923Z,-5.45
2019-01-20T21:49:51.131Z,-5.48
2019-01-20T21:52:18.980Z,-5.50
2019-01-20T21:54:46.754Z,-5.51
2019-01-20T21:57:14.977Z,-5.54
2019-01-20T21:59:43.534Z,-5.86
2019-01-20T22:02:11.572Z,-5.57
2019-01-20T22:04:40.539Z,-5.59
2019-01-20T22:07:08.535Z,-5.63
2019-01-20T22:09:36.867Z,-5.69
2019-01-20T22:12:04.901Z,-5.73
2019-01-20T22:14:34.161Z,-5.79
2019-01-20T22:17:03.198Z,-5.87
2019-01-20T22:19:34.338Z,-5.93
2019-01-20T22:22:02.825Z,-5.93
2019-01-20T22:24:31.003Z,-5.97
2019-01-20T22:26:59.973Z,-6.01
2019-01-20T22:29:27.994Z,-6.06
2019-01-20T22:31:56.062Z,-6.12
2019-01-20T22:34:24.190Z,-6.16
2019-01-20T22:36:52.485Z,-6.18
2019-01-20T22:39:20.911Z,-6.22
2019-01-20T22:41:49.009Z,-6.27
2019-01-20T22:44:16.915Z,-6.32
2019-01-20T22:46:45.497Z,-6.33
2019-01-20T22:49:13.514Z,-6.36
2019-01-20T22:51:41.390Z,-6.43
2019-01-20T22:54:10.484Z,-6.49
2019-01-20T22:56:39.142Z,-6.53
2019-01-20T22:59:07.290Z,-6.57
2019-01-20T23:01:35.845Z,-6.60
2019-01-20T23:04:04.329Z,-7.20
2019-01-20T23:06:32.184Z,-6.67
2019-01-20T23:09:06.552Z,-6.67
2019-01-20T23:11:28.554Z,-6.65
2019-01-20T23:13:56.358Z,-6.64
2019-01-20T23:16:25.745Z,-6.65
2019-01-20T23:18:53.910Z,-6.68
2019-01-20T23:21:21.877Z,-7.69
2019-01-20T23:23:52.493Z,-6.78
2019-01-20T23:26:19.439Z,-6.82
2019-01-20T23:28:49.382Z,-7.50
2019-01-20T23:31:17.840Z,-6.87
2019-01-20T23:33:45.755Z,-6.87
2019-01-20T23:36:14.467Z,-6.89
2019-01-20T23:38:43.831Z,-6.91
2019-01-20T23:41:15.895Z,-6.93
2019-01-20T23:43:44.125Z,-6.98
2019-01-20T23:46:15.394Z,-8.54
2019-01-20T23:48:43.654Z,-7.01
2019-01-20T23:51:12.121Z,-6.93
2019-01-20T23:53:40.317Z,-6.89
2019-01-20T23:56:09.768Z,-6.87
2019-01-20T23:58:39.509Z,-6.88
